createdAt,value
2018-08-19T00:00:10.216Z,4.93
2018-08-19T00:02:40.664Z,6.17
2018-08-19T00:05:19.260Z,5.60
2018-08-19T00:07:49.955Z,5.40
2018-08-19T00:10:42.724Z,5.90
2018-08-19T00:13:14.257Z,4.90
2018-08-19T00:15:44.858Z,5.17
2018-08-19T00:18:15.461Z,5.50
2018-08-19T00:20:45.978Z,5.53
2018-08-19T00:23:16.550Z,5.87
2018-08-19T00:25:47.267Z,5.00
2018-08-19T00:28:19.266Z,5.37
2018-08-19T00:30:50.040Z,5.13
2018-08-19T00:33:20.738Z,5.27
2018-08-19T00:35:51.206Z,5.03
2018-08-19T00:38:21.762Z,5.77
2018-08-19T00:40:52.327Z,6.00
2018-08-19T00:43:22.908Z,5.70
2018-08-19T00:45:54.166Z,6.10
2018-08-19T00:48:24.822Z,5.47
2018-08-19T00:50:56.312Z,5.37
2018-08-19T00:53:26.959Z,5.47
2018-08-19T00:55:57.341Z,5.60
2018-08-19T00:58:28.002Z,5.63
2018-08-19T01:00:58.456Z,6.10
2018-08-19T01:03:29.211Z,6.17
2018-08-19T01:05:59.812Z,5.73
2018-08-19T01:08:30.318Z,5.60
2018-08-19T01:11:00.868Z,5.33
2018-08-19T01:13:31.401Z,4.90
2018-08-19T01:16:01.836Z,5.70
2018-08-19T01:18:32.432Z,5.43
2018-08-19T01:21:12.159Z,5.63
2018-08-19T01:23:42.635Z,5.43
2018-08-19T01:26:13.189Z,5.73
2018-08-19T01:28:44.814Z,5.70
2018-08-19T01:31:16.226Z,5.33
2018-08-19T01:33:46.916Z,4.50
2018-08-19T01:36:17.494Z,5.87
2018-08-19T01:38:48.131Z,5.30
2018-08-19T01:41:18.577Z,5.30
2018-08-19T01:44:19.557Z,6.13
2018-08-19T01:46:51.632Z,5.73
2018-08-19T01:49:22.077Z,5.90
2018-08-19T01:51:52.545Z,6.13
2018-08-19T01:54:23.958Z,5.90
2018-08-19T01:56:58.050Z,6.03
2018-08-19T01:59:34.683Z,6.43
2018-08-19T02:02:06.735Z,6.50
2018-08-19T02:04:44.217Z,6.80
2018-08-19T02:07:17.308Z,6.90
2018-08-19T02:10:06.938Z,6.20
2018-08-19T02:12:38.708Z,6.27
2018-08-19T02:15:10.973Z,6.70
2018-08-19T02:17:48.693Z,6.67
2018-08-19T02:20:19.364Z,6.33
2018-08-19T02:22:54.136Z,6.30
2018-08-19T02:25:24.566Z,6.23
2018-08-19T02:27:55.109Z,6.17
2018-08-19T02:30:25.759Z,6.43
2018-08-19T02:32:56.818Z,6.67
2018-08-19T02:35:27.273Z,6.43
2018-08-19T02:37:57.807Z,6.03
2018-08-19T02:40:34.743Z,6.53
2018-08-19T02:43:05.427Z,5.93
2018-08-19T02:45:36.605Z,5.80
2018-08-19T02:48:07.525Z,6.13
2018-08-19T02:50:38.589Z,6.70
2018-08-19T02:53:09.095Z,6.87
2018-08-19T02:55:39.631Z,7.17
2018-08-19T02:58:15.280Z,6.60
2018-08-19T03:00:45.745Z,6.63
2018-08-19T03:03:16.372Z,6.17
2018-08-19T03:05:56.011Z,6.70
2018-08-19T03:08:26.505Z,6.63
2018-08-19T03:10:57.221Z,6.53
2018-08-19T03:13:27.793Z,6.30
2018-08-19T03:15:58.494Z,6.53
2018-08-19T03:18:28.906Z,7.70
2018-08-19T03:20:59.383Z,6.97
2018-08-19T03:23:30.566Z,7.10
2018-08-19T03:26:01.236Z,7.10
2018-08-19T03:28:32.295Z,6.93
2018-08-19T03:31:03.683Z,7.33
2018-08-19T03:33:34.211Z,6.23
2018-08-19T03:36:04.702Z,7.00
2018-08-19T03:38:35.117Z,7.03
2018-08-19T03:41:05.726Z,6.43
2018-08-19T03:43:37.017Z,6.73
2018-08-19T03:46:12.469Z,7.17
2018-08-19T03:48:43.038Z,6.90
2018-08-19T03:51:15.137Z,7.00
2018-08-19T03:53:45.706Z,6.57
2018-08-19T03:56:21.267Z,6.27
2018-08-19T03:58:52.676Z,6.23
2018-08-19T04:01:37.133Z,6.80
2018-08-19T04:04:07.749Z,6.50
2018-08-19T04:06:40.495Z,6.53
2018-08-19T04:09:11.040Z,7.07
2018-08-19T04:11:41.519Z,6.23
2018-08-19T04:14:29.139Z,7.03
2018-08-19T04:17:01.829Z,7.00
2018-08-19T04:19:32.306Z,7.00
2018-08-19T04:22:05.174Z,7.03
2018-08-19T04:24:36.230Z,6.93
2018-08-19T04:27:10.542Z,6.57
2018-08-19T04:29:41.321Z,6.60
2018-08-19T04:32:19.641Z,6.60
2018-08-19T04:34:50.321Z,6.63
2018-08-19T04:37:21.082Z,6.27
2018-08-19T04:39:51.735Z,7.73
2018-08-19T04:42:22.366Z,14.10
2018-08-19T04:44:52.958Z,9.97
2018-08-19T04:47:36.319Z,8.00
2018-08-19T04:50:06.713Z,8.50
2018-08-19T04:52:37.288Z,7.47
2018-08-19T04:55:07.915Z,7.20
2018-08-19T04:57:38.359Z,6.70
2018-08-19T05:00:09.072Z,6.57
2018-08-19T05:02:39.766Z,7.07
2018-08-19T05:05:10.196Z,6.63
2018-08-19T05:07:40.747Z,6.70
2018-08-19T05:10:11.493Z,7.20
2018-08-19T05:12:42.135Z,7.00
2018-08-19T05:15:12.576Z,6.30
2018-08-19T05:17:43.288Z,6.40
2018-08-19T05:20:16.616Z,6.60
2018-08-19T05:22:47.600Z,6.30
2018-08-19T05:25:18.345Z,6.30
2018-08-19T05:27:53.628Z,6.63
2018-08-19T05:30:24.268Z,6.13
2018-08-19T05:33:04.341Z,6.13
2018-08-19T05:35:36.017Z,5.70
2018-08-19T05:38:06.757Z,5.67
2018-08-19T05:40:39.341Z,5.33
2018-08-19T05:43:09.987Z,5.30
2018-08-19T05:45:44.904Z,5.60
2018-08-19T05:48:15.828Z,5.23
2018-08-19T05:50:46.308Z,5.23
2018-08-19T05:53:16.810Z,5.37
2018-08-19T05:55:47.453Z,4.90
2018-08-19T05:58:18.356Z,5.10
2018-08-19T06:00:53.656Z,5.00
2018-08-19T06:03:24.493Z,5.00
2018-08-19T06:05:55.239Z,5.17
2018-08-19T06:08:25.863Z,5.00
2018-08-19T06:10:56.598Z,5.40
2018-08-19T06:13:29.650Z,5.00
2018-08-19T06:16:00.715Z,5.07
2018-08-19T06:18:31.384Z,5.23
2018-08-19T06:21:02.073Z,5.83
2018-08-19T06:23:32.875Z,5.93
2018-08-19T06:26:03.496Z,5.80
2018-08-19T06:28:34.096Z,5.40
2018-08-19T06:31:04.795Z,5.97
2018-08-19T06:33:35.437Z,6.37
2018-08-19T06:36:06.096Z,5.70
2018-08-19T06:38:36.980Z,6.23
2018-08-19T06:41:07.741Z,6.10
2018-08-19T06:43:38.255Z,6.60
2018-08-19T06:46:09.080Z,6.77
2018-08-19T06:48:39.804Z,6.10
2018-08-19T06:51:10.464Z,6.13
2018-08-19T06:53:41.656Z,6.00
2018-08-19T06:56:12.207Z,6.63
2018-08-19T06:58:42.902Z,6.67
2018-08-19T07:01:13.755Z,6.00
2018-08-19T07:03:49.075Z,6.17
2018-08-19T07:06:19.394Z,5.73
2018-08-19T07:08:50.064Z,6.00
2018-08-19T07:11:20.795Z,6.10
2018-08-19T07:13:52.545Z,5.90
2018-08-19T07:16:23.582Z,5.93
2018-08-19T07:18:54.528Z,6.07
2018-08-19T07:21:25.413Z,5.77
2018-08-19T07:23:57.930Z,5.70
2018-08-19T07:26:28.653Z,5.77
2018-08-19T07:28:59.307Z,5.80
2018-08-19T07:31:31.800Z,5.47
2018-08-19T07:34:03.571Z,5.77
2018-08-19T07:36:34.150Z,5.67
2018-08-19T07:39:06.216Z,5.77
2018-08-19T07:41:37.474Z,5.60
2018-08-19T07:44:08.543Z,5.93
2018-08-19T07:46:40.234Z,6.30
2018-08-19T07:49:10.889Z,6.57
2018-08-19T07:51:41.624Z,6.23
2018-08-19T07:54:14.189Z,5.80
2018-08-19T07:56:46.083Z,6.10
2018-08-19T07:59:17.302Z,6.80
2018-08-19T08:01:48.448Z,6.73
2018-08-19T08:04:20.673Z,6.50
2018-08-19T08:06:51.940Z,6.90
2018-08-19T08:09:23.348Z,7.73
2018-08-19T08:11:54.156Z,8.20
2018-08-19T08:14:25.210Z,7.77
2018-08-19T08:16:56.742Z,8.23
2018-08-19T08:19:27.844Z,7.97
2018-08-19T08:22:05.189Z,8.20
2018-08-19T08:24:36.056Z,8.00
2018-08-19T08:27:08.534Z,8.03
2018-08-19T08:29:39.243Z,8.53
2018-08-19T08:32:10.643Z,8.03
2018-08-19T08:34:41.758Z,8.20
2018-08-19T08:37:14.101Z,8.83
2018-08-19T08:39:45.737Z,8.97
2018-08-19T08:42:16.444Z,9.67
2018-08-19T08:44:47.166Z,10.40
2018-08-19T08:47:18.035Z,9.20
2018-08-19T08:49:49.706Z,9.47
2018-08-19T08:52:24.353Z,10.57
2018-08-19T08:54:56.547Z,9.60
2018-08-19T08:57:27.780Z,9.37
2018-08-19T09:00:01.908Z,9.60
2018-08-19T09:02:32.746Z,9.20
2018-08-19T09:05:03.878Z,9.50
2018-08-19T09:07:35.544Z,9.65
2018-08-19T09:10:07.050Z,9.58
2018-08-19T09:12:56.695Z,9.13
2018-08-19T09:15:28.107Z,8.65
2018-08-19T09:17:59.626Z,9.20
2018-08-19T09:20:30.548Z,9.30
2018-08-19T09:23:01.643Z,9.00
2018-08-19T09:25:33.831Z,9.20
2018-08-19T09:28:13.564Z,9.43
2018-08-19T09:30:46.250Z,9.43
2018-08-19T09:33:20.703Z,9.38
2018-08-19T09:35:53.136Z,9.60
2018-08-19T09:38:26.279Z,9.18
2018-08-19T09:40:58.040Z,9.28
2018-08-19T09:43:30.389Z,9.13
2018-08-19T09:46:02.006Z,9.28
2018-08-19T09:48:33.053Z,9.48
2018-08-19T09:51:08.715Z,9.43
2018-08-19T09:53:39.986Z,9.63
2018-08-19T09:56:12.115Z,9.15
2018-08-19T09:58:47.308Z,9.25
2018-08-19T10:01:22.845Z,9.40
2018-08-19T10:03:54.441Z,9.35
2018-08-19T10:06:26.223Z,9.23
2018-08-19T10:08:57.138Z,9.80
2018-08-19T10:11:28.320Z,8.95
2018-08-19T10:14:04.102Z,8.55
2018-08-19T10:16:46.794Z,9.43
2018-08-19T10:19:20.129Z,8.83
2018-08-19T10:21:52.798Z,9.23
2018-08-19T10:24:30.864Z,9.73
2018-08-19T10:27:10.852Z,10.03
2018-08-19T10:29:56.386Z,9.70
2018-08-19T10:32:28.336Z,10.17
2018-08-19T10:35:17.780Z,9.70
2018-08-19T10:37:50.696Z,9.37
2018-08-19T10:40:23.563Z,10.80
2018-08-19T10:42:59.507Z,9.83
2018-08-19T10:45:36.965Z,10.50
2018-08-19T10:48:13.760Z,9.90
2018-08-19T10:50:49.978Z,9.90
2018-08-19T10:53:33.584Z,9.67
2018-08-19T10:56:09.139Z,9.90
2018-08-19T10:59:02.600Z,9.73
2018-08-19T11:01:34.468Z,10.03
2018-08-19T11:04:05.901Z,11.47
2018-08-19T11:06:36.817Z,9.83
2018-08-19T11:09:08.649Z,10.60
2018-08-19T11:11:39.268Z,9.83
2018-08-19T11:14:13.359Z,9.43
2018-08-19T11:16:44.220Z,9.65
2018-08-19T11:19:15.308Z,8.95
2018-08-19T11:21:46.760Z,9.35
2018-08-19T11:24:23.638Z,10.00
2018-08-19T11:27:04.515Z,9.25
2018-08-19T11:29:44.951Z,8.20
2018-08-19T11:32:30.320Z,9.08
2018-08-19T11:35:01.533Z,9.28
2018-08-19T11:37:33.003Z,9.50
2018-08-19T11:40:05.052Z,9.53
2018-08-19T11:42:35.989Z,9.45
2018-08-19T11:45:08.097Z,9.30
2018-08-19T11:47:39.025Z,9.43
2018-08-19T11:50:09.836Z,9.00
2018-08-19T11:52:41.268Z,8.75
2018-08-19T11:55:13.365Z,8.60
2018-08-19T11:57:45.297Z,9.25
2018-08-19T12:00:16.267Z,8.85
2018-08-19T12:02:47.997Z,8.90
2018-08-19T12:05:19.372Z,9.28
2018-08-19T12:07:54.252Z,9.15
2018-08-19T12:10:24.810Z,8.73
2018-08-19T12:12:55.848Z,8.58
2018-08-19T12:15:26.957Z,8.80
2018-08-19T12:17:58.138Z,9.60
2018-08-19T12:20:34.153Z,9.60
2018-08-19T12:23:06.157Z,8.43
2018-08-19T12:25:38.094Z,8.95
2018-08-19T12:28:09.138Z,8.93
2018-08-19T12:30:40.612Z,9.33
2018-08-19T12:33:26.481Z,9.15
2018-08-19T12:35:58.916Z,8.78
2018-08-19T12:38:31.349Z,8.80
2018-08-19T12:41:06.198Z,9.50
2018-08-19T12:43:37.282Z,9.03
2018-08-19T12:46:09.259Z,8.85
2018-08-19T12:48:40.321Z,8.95
2018-08-19T12:51:12.808Z,8.90
2018-08-19T12:53:43.258Z,9.53
2018-08-19T12:56:15.821Z,8.53
2018-08-19T12:58:47.536Z,8.93
2018-08-19T13:01:19.718Z,9.00
2018-08-19T13:03:50.491Z,9.00
2018-08-19T13:06:21.437Z,9.48
2018-08-19T13:08:52.341Z,9.50
2018-08-19T13:11:23.801Z,9.70
2018-08-19T13:13:54.639Z,9.05
2018-08-19T13:16:25.492Z,8.45
2018-08-19T13:18:57.045Z,8.78
2018-08-19T13:21:29.315Z,9.00
2018-08-19T13:24:00.841Z,9.88
2018-08-19T13:26:31.752Z,9.28
2018-08-19T13:29:04.760Z,9.60
2018-08-19T13:31:36.398Z,9.27
2018-08-19T13:34:07.692Z,9.43
2018-08-19T13:36:40.640Z,8.93
2018-08-19T13:39:14.221Z,8.80
2018-08-19T13:41:47.155Z,8.87
2018-08-19T13:44:18.213Z,8.30
2018-08-19T13:46:50.590Z,8.50
2018-08-19T13:49:25.343Z,8.03
2018-08-19T13:51:56.550Z,8.13
2018-08-19T13:54:27.438Z,8.67
2018-08-19T13:56:59.307Z,7.83
2018-08-19T13:59:30.649Z,8.87
2018-08-19T14:02:02.681Z,8.63
2018-08-19T14:04:33.511Z,8.80
2018-08-19T14:07:06.912Z,10.23
2018-08-19T14:09:37.973Z,11.73
2018-08-19T14:12:08.821Z,10.10
2018-08-19T14:14:39.673Z,12.80
2018-08-19T14:17:10.566Z,10.63
2018-08-19T14:19:42.544Z,13.77
2018-08-19T14:22:29.352Z,17.17
2018-08-19T14:25:06.975Z,18.40
2018-08-19T14:27:49.032Z,16.13
2018-08-19T14:30:35.357Z,19.23
2018-08-19T14:33:07.648Z,14.40
2018-08-19T14:35:46.648Z,8.87
2018-08-19T14:38:20.418Z,10.97
2018-08-19T14:40:52.338Z,12.47
2018-08-19T14:43:23.812Z,14.13
2018-08-19T14:45:55.639Z,12.57
2018-08-19T14:48:26.626Z,13.23
2018-08-19T14:50:57.929Z,13.40
2018-08-19T14:53:31.205Z,16.73
2018-08-19T14:56:16.892Z,17.87
2018-08-19T14:58:48.824Z,16.17
2018-08-19T15:01:20.219Z,15.33
2018-08-19T15:03:57.700Z,16.10
2018-08-19T15:06:29.589Z,18.83
2018-08-19T15:09:01.150Z,19.33
2018-08-19T15:11:32.860Z,19.70
2018-08-19T15:14:15.817Z,16.70
2018-08-19T15:16:52.542Z,15.80
2018-08-19T15:19:28.161Z,14.17
2018-08-19T15:22:01.486Z,18.30
2018-08-19T15:24:39.833Z,18.27
2018-08-19T15:27:14.928Z,28.60
2018-08-19T15:29:49.001Z,16.00
2018-08-19T15:32:22.684Z,16.90
2018-08-19T15:34:54.396Z,16.30
2018-08-19T15:37:25.114Z,15.70
2018-08-19T15:39:57.547Z,14.43
2018-08-19T15:42:29.369Z,15.07
2018-08-19T15:45:07.011Z,14.60
2018-08-19T15:47:39.357Z,15.53
2018-08-19T15:50:21.563Z,15.43
2018-08-19T15:52:53.326Z,23.83
2018-08-19T15:55:26.972Z,15.47
2018-08-19T15:58:04.176Z,16.37
2018-08-19T16:00:40.011Z,15.97
2018-08-19T16:03:14.512Z,17.17
2018-08-19T16:05:48.820Z,17.90
2018-08-19T16:08:20.447Z,17.87
2018-08-19T16:10:52.910Z,17.50
2018-08-19T16:13:30.971Z,20.70
2018-08-19T16:16:04.175Z,21.30
2018-08-19T16:18:37.418Z,19.47
2018-08-19T16:21:09.863Z,20.27
2018-08-19T16:23:42.656Z,22.00
2018-08-19T16:26:19.309Z,23.87
2018-08-19T16:28:53.123Z,20.10
2018-08-19T16:31:27.800Z,21.23
2018-08-19T16:34:01.055Z,19.13
2018-08-19T16:36:32.461Z,15.77
2018-08-19T16:39:05.473Z,17.43
2018-08-19T16:41:52.309Z,16.43
2018-08-19T16:44:25.198Z,14.87
2018-08-19T16:46:59.421Z,15.73
2018-08-19T16:49:33.312Z,17.77
2018-08-19T16:52:06.757Z,20.27
2018-08-19T16:54:39.000Z,23.90
2018-08-19T16:57:12.211Z,22.53
2018-08-19T16:59:44.586Z,25.63
2018-08-19T17:02:21.342Z,20.77
2018-08-19T17:04:53.834Z,18.07
2018-08-19T17:07:29.872Z,19.03
2018-08-19T17:10:04.146Z,17.93
2018-08-19T17:12:38.891Z,19.17
2018-08-19T17:15:14.101Z,19.07
2018-08-19T17:17:48.456Z,19.10
2018-08-19T17:20:20.561Z,17.57
2018-08-19T17:22:52.442Z,17.77
2018-08-19T17:25:25.945Z,26.37
2018-08-19T17:28:11.276Z,20.33
2018-08-19T17:30:43.137Z,16.13
2018-08-19T17:33:14.924Z,17.93
2018-08-19T17:35:49.572Z,19.17
2018-08-19T17:38:21.367Z,20.07
2018-08-19T17:40:53.130Z,18.37
2018-08-19T17:43:36.279Z,17.60
2018-08-19T17:46:13.370Z,16.47
2018-08-19T17:48:45.939Z,16.37
2018-08-19T17:51:32.118Z,17.00
2018-08-19T17:54:10.094Z,16.43
2018-08-19T17:56:42.177Z,16.27
2018-08-19T17:59:13.973Z,16.70
2018-08-19T18:01:45.948Z,15.40
2018-08-19T18:04:17.229Z,16.27
2018-08-19T18:06:48.310Z,16.53
2018-08-19T18:09:20.083Z,16.10
2018-08-19T18:11:55.551Z,18.23
2018-08-19T18:14:27.214Z,16.83
2018-08-19T18:17:01.018Z,18.70
2018-08-19T18:19:39.068Z,17.30
2018-08-19T18:22:15.617Z,18.07
2018-08-19T18:24:55.706Z,17.20
2018-08-19T18:27:31.792Z,16.93
2018-08-19T18:30:10.723Z,17.93
2018-08-19T18:32:44.726Z,18.00
2018-08-19T18:35:29.984Z,17.67
2018-08-19T18:38:08.312Z,17.47
2018-08-19T18:40:46.258Z,18.03
2018-08-19T18:43:20.807Z,24.47
2018-08-19T18:45:54.673Z,28.20
2018-08-19T18:48:33.295Z,24.30
2018-08-19T18:51:11.387Z,21.60
2018-08-19T18:53:45.206Z,20.97
2018-08-19T18:56:21.283Z,27.73
2018-08-19T18:58:57.931Z,21.33
2018-08-19T19:01:42.133Z,25.30
2018-08-19T19:04:17.708Z,35.13
2018-08-19T19:06:54.548Z,40.83
2018-08-19T19:09:42.823Z,38.43
2018-08-19T19:12:20.192Z,24.67
2018-08-19T19:14:52.730Z,22.90
2018-08-19T19:17:26.764Z,26.60
2018-08-19T19:20:01.507Z,27.03
2018-08-19T19:22:41.759Z,25.73
2018-08-19T19:25:14.613Z,26.03
2018-08-19T19:27:49.097Z,24.40
2018-08-19T19:30:22.969Z,19.17
2018-08-19T19:33:01.543Z,20.07
2018-08-19T19:35:36.946Z,22.70
2018-08-19T19:38:16.678Z,21.27
2018-08-19T19:41:06.322Z,21.70
2018-08-19T19:43:39.444Z,24.97
2018-08-19T19:46:15.453Z,25.13
2018-08-19T19:48:53.568Z,25.50
2018-08-19T19:51:30.657Z,20.73
2018-08-19T19:54:06.358Z,19.60
2018-08-19T19:56:49.706Z,18.50
2018-08-19T19:59:38.042Z,18.37
2018-08-19T20:02:30.339Z,18.37
2018-08-19T20:05:13.619Z,17.50
2018-08-19T20:07:54.760Z,17.30
2018-08-19T20:10:41.575Z,17.33
2018-08-19T20:13:23.298Z,16.97
2018-08-19T20:16:01.692Z,16.40
2018-08-19T20:18:40.965Z,21.70
2018-08-19T20:21:22.559Z,20.07
2018-08-19T20:24:02.793Z,18.80
2018-08-19T20:26:46.527Z,18.77
2018-08-19T20:29:21.791Z,20.80
2018-08-19T20:31:57.342Z,21.30
2018-08-19T20:34:34.746Z,21.83
2018-08-19T20:37:11.340Z,26.87
2018-08-19T20:39:43.882Z,24.43
2018-08-19T20:42:17.646Z,24.53
2018-08-19T20:44:56.245Z,21.07
2018-08-19T20:47:32.019Z,20.90
2018-08-19T20:50:11.281Z,20.00
2018-08-19T20:52:50.540Z,20.63
2018-08-19T20:55:24.199Z,20.63
2018-08-19T20:58:00.358Z,19.70
2018-08-19T21:00:32.908Z,20.57
2018-08-19T21:03:05.850Z,21.33
2018-08-19T21:05:39.367Z,19.90
2018-08-19T21:08:19.278Z,21.40
2018-08-19T21:10:51.354Z,21.17
2018-08-19T21:13:22.891Z,22.23
2018-08-19T21:15:56.274Z,21.80
2018-08-19T21:18:27.031Z,23.20
2018-08-19T21:20:58.153Z,21.10
2018-08-19T21:23:29.706Z,22.67
2018-08-19T21:26:01.597Z,22.73
2018-08-19T21:28:32.357Z,22.57
2018-08-19T21:31:04.720Z,22.73
2018-08-19T21:33:35.918Z,19.83
2018-08-19T21:36:06.845Z,23.70
2018-08-19T21:38:38.090Z,26.70
2018-08-19T21:41:08.853Z,22.33
2018-08-19T21:43:41.099Z,21.83
2018-08-19T21:46:11.929Z,23.87
2018-08-19T21:48:43.274Z,25.37
2018-08-19T21:51:14.179Z,23.20
2018-08-19T21:53:46.256Z,23.43
2018-08-19T21:56:17.010Z,27.30
2018-08-19T21:58:47.971Z,15.90
2018-08-19T22:01:23.073Z,16.67
2018-08-19T22:03:53.977Z,18.27
2018-08-19T22:06:24.624Z,21.47
2018-08-19T22:08:56.377Z,26.77
2018-08-19T22:11:27.662Z,18.60
2018-08-19T22:13:59.453Z,17.40
2018-08-19T22:16:30.287Z,18.73
2018-08-19T22:19:01.331Z,19.90
2018-08-19T22:21:32.152Z,22.50
2018-08-19T22:24:02.825Z,20.60
2018-08-19T22:26:33.631Z,21.07
2018-08-19T22:29:15.408Z,20.50
2018-08-19T22:31:46.156Z,20.33
2018-08-19T22:34:16.668Z,20.73
2018-08-19T22:36:47.349Z,21.33
2018-08-19T22:39:20.714Z,20.20
2018-08-19T22:41:52.610Z,21.23
2018-08-19T22:44:23.939Z,21.80
2018-08-19T22:46:54.617Z,21.30
2018-08-19T22:49:28.300Z,21.13
2018-08-19T22:52:24.828Z,20.00
2018-08-19T22:54:57.419Z,20.33
2018-08-19T22:57:28.844Z,19.27
2018-08-19T22:59:59.406Z,18.53
2018-08-19T23:02:30.747Z,19.73
2018-08-19T23:05:01.344Z,20.63
2018-08-19T23:07:31.892Z,23.97
2018-08-19T23:10:02.510Z,21.17
2018-08-19T23:12:33.175Z,19.90
2018-08-19T23:15:20.071Z,21.43
2018-08-19T23:17:51.281Z,21.07
2018-08-19T23:20:22.533Z,19.23
2018-08-19T23:22:52.978Z,19.17
2018-08-19T23:25:23.509Z,19.53
2018-08-19T23:27:54.052Z,19.23
2018-08-19T23:30:24.976Z,18.73
2018-08-19T23:32:55.567Z,19.67
2018-08-19T23:35:26.133Z,20.00
2018-08-19T23:37:56.729Z,21.00
2018-08-19T23:40:27.328Z,19.80
2018-08-19T23:42:58.313Z,19.63
2018-08-19T23:45:28.857Z,20.03
2018-08-19T23:48:00.102Z,20.03
2018-08-19T23:50:30.560Z,20.50
2018-08-19T23:53:01.113Z,20.63
2018-08-19T23:55:31.659Z,19.00
2018-08-19T23:58:03.018Z,18.23
